sensor_id;sensor_type;location;lat;lon;timestamp;temperature;humidity
31084;DHT22;36333;51.382;0.016;2022-10-16T00:01:27;11.30;99.90
31084;DHT22;36333;51.382;0.016;2022-10-16T00:03:55;11.20;99.90
31084;DHT22;36333;51.382;0.016;2022-10-16T00:06:23;11.20;99.90
31084;DHT22;36333;51.382;0.016;2022-10-16T00:08:52;11.30;99.90
31084;DHT22;36333;51.382;0.016;2022-10-16T00:11:22;11.30;99.90
31084;DHT22;36333;51.382;0.016;2022-10-16T00:13:53;11.30;99.90
31084;DHT22;36333;51.382;0.016;2022-10-16T00:16:21;11.30;99.90
31084;DHT22;36333;51.382;0.016;2022-10-16T00:18:49;11.50;99.90
31084;DHT22;36333;51.382;0.016;2022-10-16T00:21:19;11.60;99.90
31084;DHT22;36333;51.382;0.016;2022-10-16T00:24:07;11.80;99.90
31084;DHT22;36333;51.382;0.016;2022-10-16T00:26:37;11.90;99.90
31084;DHT22;36333;51.382;0.016;2022-10-16T00:29:05;12.00;99.90
31084;DHT22;36333;51.382;0.016;2022-10-16T00:31:33;12.20;99.90
31084;DHT22;36333;51.382;0.016;2022-10-16T00:34:01;12.10;99.90
31084;DHT22;36333;51.382;0.016;2022-10-16T00:36:28;12.10;99.90
31084;DHT22;36333;51.382;0.016;2022-10-16T00:38:57;12.10;99.90
31084;DHT22;36333;51.382;0.016;2022-10-16T00:41:32;10.90;99.90
31084;DHT22;36333;51.382;0.016;2022-10-16T00:44:02;11.90;99.90
31084;DHT22;36333;51.382;0.016;2022-10-16T00:46:42;11.80;99.90
31084;DHT22;36333;51.382;0.016;2022-10-16T00:49:15;11.90;99.90
31084;DHT22;36333;51.382;0.016;2022-10-16T00:51:49;11.70;99.90
31084;DHT22;36333;51.382;0.016;2022-10-16T00:54:20;11.70;99.90
31084;DHT22;36333;51.382;0.016;2022-10-16T00:56:49;11.60;99.90
31084;DHT22;36333;51.382;0.016;2022-10-16T00:59:27;11.60;99.90
31084;DHT22;36333;51.382;0.016;2022-10-16T01:01:56;11.60;99.90
31084;DHT22;36333;51.382;0.016;2022-10-16T01:04:25;11.50;99.90
31084;DHT22;36333;51.382;0.016;2022-10-16T01:10:02;11.40;99.90
31084;DHT22;36333;51.382;0.016;2022-10-16T01:15:30;11.20;99.90
31084;DHT22;36333;51.382;0.016;2022-10-16T01:18:28;11.10;99.90
31084;DHT22;36333;51.382;0.016;2022-10-16T01:21:02;11.10;99.90
31084;DHT22;36333;51.382;0.016;2022-10-16T01:23:50;11.30;99.90
31084;DHT22;36333;51.382;0.016;2022-10-16T01:29:24;10.80;99.90
31084;DHT22;36333;51.382;0.016;2022-10-16T01:32:00;10.80;99.90
31084;DHT22;36333;51.382;0.016;2022-10-16T01:34:33;10.90;99.90
31084;DHT22;36333;51.382;0.016;2022-10-16T01:37:06;10.90;99.90
31084;DHT22;36333;51.382;0.016;2022-10-16T01:39:37;11.30;99.90
31084;DHT22;36333;51.382;0.016;2022-10-16T01:42:11;11.10;99.90
31084;DHT22;36333;51.382;0.016;2022-10-16T01:44:41;10.80;99.90
31084;DHT22;36333;51.382;0.016;2022-10-16T01:47:10;10.80;99.90
31084;DHT22;36333;51.382;0.016;2022-10-16T01:49:41;10.80;99.90
31084;DHT22;36333;51.382;0.016;2022-10-16T01:52:14;10.80;99.90
31084;DHT22;36333;51.382;0.016;2022-10-16T01:54:46;10.80;99.90
31084;DHT22;36333;51.382;0.016;2022-10-16T01:57:14;11.00;99.90
31084;DHT22;36333;51.382;0.016;2022-10-16T01:59:48;11.70;99.90
31084;DHT22;36333;51.382;0.016;2022-10-16T02:02:19;11.10;99.90
31084;DHT22;36333;51.382;0.016;2022-10-16T02:04:58;11.20;99.90
31084;DHT22;36333;51.382;0.016;2022-10-16T02:07:27;11.50;99.90
31084;DHT22;36333;51.382;0.016;2022-10-16T02:09:55;11.50;99.90
31084;DHT22;36333;51.382;0.016;2022-10-16T02:12:28;11.60;99.90
31084;DHT22;36333;51.382;0.016;2022-10-16T02:14:57;11.70;99.90
31084;DHT22;36333;51.382;0.016;2022-10-16T02:17:26;11.80;99.90
31084;DHT22;36333;51.382;0.016;2022-10-16T02:19:56;11.90;99.90
31084;DHT22;36333;51.382;0.016;2022-10-16T02:22:32;12.20;99.90
31084;DHT22;36333;51.382;0.016;2022-10-16T02:31:06;12.10;99.90
31084;DHT22;36333;51.382;0.016;2022-10-16T02:33:37;12.10;99.90
31084;DHT22;36333;51.382;0.016;2022-10-16T02:36:06;12.00;99.90
31084;DHT22;36333;51.382;0.016;2022-10-16T02:38:34;12.40;99.90
31084;DHT22;36333;51.382;0.016;2022-10-16T02:41:06;11.90;99.90
31084;DHT22;36333;51.382;0.016;2022-10-16T02:43:34;11.80;99.90
31084;DHT22;36333;51.382;0.016;2022-10-16T02:46:01;11.70;99.90
31084;DHT22;36333;51.382;0.016;2022-10-16T02:48:29;11.60;99.90
31084;DHT22;36333;51.382;0.016;2022-10-16T02:50:56;11.60;99.90
31084;DHT22;36333;51.382;0.016;2022-10-16T02:53:24;11.50;99.90
31084;DHT22;36333;51.382;0.016;2022-10-16T02:55:51;11.50;99.90
31084;DHT22;36333;51.382;0.016;2022-10-16T02:58:19;11.40;99.90
31084;DHT22;36333;51.382;0.016;2022-10-16T03:00:47;12.10;99.90
31084;DHT22;36333;51.382;0.016;2022-10-16T03:03:14;11.30;99.90
31084;DHT22;36333;51.382;0.016;2022-10-16T03:05:43;11.30;99.90
31084;DHT22;36333;51.382;0.016;2022-10-16T03:08:13;11.60;99.90
31084;DHT22;36333;51.382;0.016;2022-10-16T03:10:40;11.50;99.90
31084;DHT22;36333;51.382;0.016;2022-10-16T03:13:08;11.20;99.90
31084;DHT22;36333;51.382;0.016;2022-10-16T03:15:35;11.10;99.90
31084;DHT22;36333;51.382;0.016;2022-10-16T03:18:03;11.10;99.90
31084;DHT22;36333;51.382;0.016;2022-10-16T03:20:30;11.00;99.90
31084;DHT22;36333;51.382;0.016;2022-10-16T03:22:58;11.10;99.90
31084;DHT22;36333;51.382;0.016;2022-10-16T03:25:25;10.90;99.90
31084;DHT22;36333;51.382;0.016;2022-10-16T03:27:53;10.90;99.90
31084;DHT22;36333;51.382;0.016;2022-10-16T03:30:21;11.20;99.90
31084;DHT22;36333;51.382;0.016;2022-10-16T03:32:48;10.80;99.90
31084;DHT22;36333;51.382;0.016;2022-10-16T03:35:16;11.10;99.90
31084;DHT22;36333;51.382;0.016;2022-10-16T03:37:43;10.80;99.90
31084;DHT22;36333;51.382;0.016;2022-10-16T03:40:11;10.80;99.90
31084;DHT22;36333;51.382;0.016;2022-10-16T03:42:39;11.80;99.90
31084;DHT22;36333;51.382;0.016;2022-10-16T03:45:06;10.80;99.90
31084;DHT22;36333;51.382;0.016;2022-10-16T03:47:34;10.80;99.90
31084;DHT22;36333;51.382;0.016;2022-10-16T03:50:02;11.30;99.90
31084;DHT22;36333;51.382;0.016;2022-10-16T03:52:30;10.80;99.90
31084;DHT22;36333;51.382;0.016;2022-10-16T03:54:59;10.70;99.90
31084;DHT22;36333;51.382;0.016;2022-10-16T03:57:26;10.70;99.90
31084;DHT22;36333;51.382;0.016;2022-10-16T03:59:55;10.70;99.90
31084;DHT22;36333;51.382;0.016;2022-10-16T04:02:22;11.30;99.90
31084;DHT22;36333;51.382;0.016;2022-10-16T04:04:50;10.70;99.90
31084;DHT22;36333;51.382;0.016;2022-10-16T04:07:18;10.70;99.90
31084;DHT22;36333;51.382;0.016;2022-10-16T04:09:45;10.80;99.90
31084;DHT22;36333;51.382;0.016;2022-10-16T04:12:13;10.70;99.90
31084;DHT22;36333;51.382;0.016;2022-10-16T04:14:41;10.60;99.90
31084;DHT22;36333;51.382;0.016;2022-10-16T04:17:09;10.50;99.90
31084;DHT22;36333;51.382;0.016;2022-10-16T04:19:36;10.50;99.90
31084;DHT22;36333;51.382;0.016;2022-10-16T04:22:04;10.50;99.90
31084;DHT22;36333;51.382;0.016;2022-10-16T04:24:31;11.20;99.90
31084;DHT22;36333;51.382;0.016;2022-10-16T04:26:59;10.50;99.90
31084;DHT22;36333;51.382;0.016;2022-10-16T04:29:26;10.50;99.90
31084;DHT22;36333;51.382;0.016;2022-10-16T04:31:54;10.50;99.90
31084;DHT22;36333;51.382;0.016;2022-10-16T04:34:21;10.50;99.90
31084;DHT22;36333;51.382;0.016;2022-10-16T04:36:49;10.50;99.90
31084;DHT22;36333;51.382;0.016;2022-10-16T04:39:17;11.30;99.90
31084;DHT22;36333;51.382;0.016;2022-10-16T04:41:44;10.50;99.90
31084;DHT22;36333;51.382;0.016;2022-10-16T04:44:12;10.40;99.90
31084;DHT22;36333;51.382;0.016;2022-10-16T04:46:39;10.30;99.90
31084;DHT22;36333;51.382;0.016;2022-10-16T04:49:07;10.80;99.90
31084;DHT22;36333;51.382;0.016;2022-10-16T04:51:34;10.30;99.90
31084;DHT22;36333;51.382;0.016;2022-10-16T04:54:02;10.40;99.90
31084;DHT22;36333;51.382;0.016;2022-10-16T04:56:29;10.20;99.90
31084;DHT22;36333;51.382;0.016;2022-10-16T04:58:57;10.70;99.90
31084;DHT22;36333;51.382;0.016;2022-10-16T05:01:24;10.20;99.90
31084;DHT22;36333;51.382;0.016;2022-10-16T05:03:52;10.20;99.90
31084;DHT22;36333;51.382;0.016;2022-10-16T05:06:19;10.20;99.90
31084;DHT22;36333;51.382;0.016;2022-10-16T05:08:47;10.80;99.90
31084;DHT22;36333;51.382;0.016;2022-10-16T05:11:14;10.20;99.90
31084;DHT22;36333;51.382;0.016;2022-10-16T05:13:42;10.20;99.90
31084;DHT22;36333;51.382;0.016;2022-10-16T05:16:09;11.90;99.90
31084;DHT22;36333;51.382;0.016;2022-10-16T05:18:36;10.20;99.90
31084;DHT22;36333;51.382;0.016;2022-10-16T05:21:04;10.40;99.90
31084;DHT22;36333;51.382;0.016;2022-10-16T05:23:33;10.20;99.90
31084;DHT22;36333;51.382;0.016;2022-10-16T05:26:01;10.20;99.90
31084;DHT22;36333;51.382;0.016;2022-10-16T05:28:29;11.10;99.90
31084;DHT22;36333;51.382;0.016;2022-10-16T05:30:58;10.20;99.90
31084;DHT22;36333;51.382;0.016;2022-10-16T05:33:26;10.20;99.90
31084;DHT22;36333;51.382;0.016;2022-10-16T05:35:54;10.70;99.90
31084;DHT22;36333;51.382;0.016;2022-10-16T05:38:21;10.20;99.90
31084;DHT22;36333;51.382;0.016;2022-10-16T05:40:52;10.20;99.90
31084;DHT22;36333;51.382;0.016;2022-10-16T05:43:20;11.40;99.90
31084;DHT22;36333;51.382;0.016;2022-10-16T05:45:58;10.10;99.90
31084;DHT22;36333;51.382;0.016;2022-10-16T05:48:28;10.10;99.90
31084;DHT22;36333;51.382;0.016;2022-10-16T05:51:14;10.10;99.90
31084;DHT22;36333;51.382;0.016;2022-10-16T05:53:42;11.80;99.90
31084;DHT22;36333;51.382;0.016;2022-10-16T05:56:15;10.20;99.90
31084;DHT22;36333;51.382;0.016;2022-10-16T05:58:42;10.20;99.90
31084;DHT22;36333;51.382;0.016;2022-10-16T06:01:17;9.90;99.90
31084;DHT22;36333;51.382;0.016;2022-10-16T06:03:45;9.90;99.90
31084;DHT22;36333;51.382;0.016;2022-10-16T06:06:15;9.90;99.90
31084;DHT22;36333;51.382;0.016;2022-10-16T06:08:44;9.90;99.90
31084;DHT22;36333;51.382;0.016;2022-10-16T06:11:18;9.90;99.90
31084;DHT22;36333;51.382;0.016;2022-10-16T06:13:51;9.90;99.90
31084;DHT22;36333;51.382;0.016;2022-10-16T06:16:19;9.90;99.90
31084;DHT22;36333;51.382;0.016;2022-10-16T06:18:46;9.80;99.90
31084;DHT22;36333;51.382;0.016;2022-10-16T06:21:18;9.80;99.90
31084;DHT22;36333;51.382;0.016;2022-10-16T06:23:47;9.80;99.90
31084;DHT22;36333;51.382;0.016;2022-10-16T06:26:17;9.70;99.90
31084;DHT22;36333;51.382;0.016;2022-10-16T06:28:44;9.70;99.90
31084;DHT22;36333;51.382;0.016;2022-10-16T06:31:13;10.20;99.90
31084;DHT22;36333;51.382;0.016;2022-10-16T06:33:41;9.70;99.90
31084;DHT22;36333;51.382;0.016;2022-10-16T06:36:17;9.70;99.90
31084;DHT22;36333;51.382;0.016;2022-10-16T06:38:46;9.70;99.90
31084;DHT22;36333;51.382;0.016;2022-10-16T06:41:19;9.60;99.90
31084;DHT22;36333;51.382;0.016;2022-10-16T06:43:47;9.90;99.90
31084;DHT22;36333;51.382;0.016;2022-10-16T06:46:18;9.90;99.90
31084;DHT22;36333;51.382;0.016;2022-10-16T06:48:46;11.50;99.90
31084;DHT22;36333;51.382;0.016;2022-10-16T06:51:16;10.30;99.90
31084;DHT22;36333;51.382;0.016;2022-10-16T06:53:48;9.50;99.90
31084;DHT22;36333;51.382;0.016;2022-10-16T06:56:33;10.80;99.90
31084;DHT22;36333;51.382;0.016;2022-10-16T06:59:01;9.50;99.90
31084;DHT22;36333;51.382;0.016;2022-10-16T07:01:29;9.60;99.90
31084;DHT22;36333;51.382;0.016;2022-10-16T07:03:58;9.60;99.90
31084;DHT22;36333;51.382;0.016;2022-10-16T07:06:29;10.20;99.90
31084;DHT22;36333;51.382;0.016;2022-10-16T07:08:57;9.60;99.90
31084;DHT22;36333;51.382;0.016;2022-10-16T07:11:25;10.50;99.90
31084;DHT22;36333;51.382;0.016;2022-10-16T07:13:52;9.60;99.90
31084;DHT22;36333;51.382;0.016;2022-10-16T07:16:25;9.60;99.90
31084;DHT22;36333;51.382;0.016;2022-10-16T07:18:55;9.60;99.90
31084;DHT22;36333;51.382;0.016;2022-10-16T07:21:28;10.80;99.90
31084;DHT22;36333;51.382;0.016;2022-10-16T07:24:00;9.60;99.90
31084;DHT22;36333;51.382;0.016;2022-10-16T07:26:30;9.60;99.90
31084;DHT22;36333;51.382;0.016;2022-10-16T07:28:58;9.60;99.90
31084;DHT22;36333;51.382;0.016;2022-10-16T07:31:26;10.90;99.90
31084;DHT22;36333;51.382;0.016;2022-10-16T07:33:59;9.60;99.90
31084;DHT22;36333;51.382;0.016;2022-10-16T07:36:27;9.60;99.90
31084;DHT22;36333;51.382;0.016;2022-10-16T07:38:55;9.80;99.90
31084;DHT22;36333;51.382;0.016;2022-10-16T07:41:27;9.70;99.90
31084;DHT22;36333;51.382;0.016;2022-10-16T07:43:55;9.70;99.90
31084;DHT22;36333;51.382;0.016;2022-10-16T07:46:29;10.30;99.90
31084;DHT22;36333;51.382;0.016;2022-10-16T07:48:57;9.70;99.90
31084;DHT22;36333;51.382;0.016;2022-10-16T07:51:26;9.70;99.90
31084;DHT22;36333;51.382;0.016;2022-10-16T07:53:53;9.70;99.90
31084;DHT22;36333;51.382;0.016;2022-10-16T07:56:21;9.80;99.90
31084;DHT22;36333;51.382;0.016;2022-10-16T07:58:50;9.80;99.90
31084;DHT22;36333;51.382;0.016;2022-10-16T08:01:18;9.80;99.90
31084;DHT22;36333;51.382;0.016;2022-10-16T08:03:47;9.80;99.90
31084;DHT22;36333;51.382;0.016;2022-10-16T08:06:16;9.80;99.90
31084;DHT22;36333;51.382;0.016;2022-10-16T08:08:48;9.90;99.90
31084;DHT22;36333;51.382;0.016;2022-10-16T08:11:16;10.00;99.90
31084;DHT22;36333;51.382;0.016;2022-10-16T08:13:44;11.20;99.90
31084;DHT22;36333;51.382;0.016;2022-10-16T08:16:11;10.30;99.90
31084;DHT22;36333;51.382;0.016;2022-10-16T08:18:40;10.40;99.90
31084;DHT22;36333;51.382;0.016;2022-10-16T08:21:16;10.70;99.90
31084;DHT22;36333;51.382;0.016;2022-10-16T08:23:52;11.00;99.90
31084;DHT22;36333;51.382;0.016;2022-10-16T08:26:25;11.20;99.90
31084;DHT22;36333;51.382;0.016;2022-10-16T08:28:54;11.50;99.90
31084;DHT22;36333;51.382;0.016;2022-10-16T08:31:22;12.70;99.90
31084;DHT22;36333;51.382;0.016;2022-10-16T08:33:49;12.10;99.90
31084;DHT22;36333;51.382;0.016;2022-10-16T08:36:17;12.30;99.90
31084;DHT22;36333;51.382;0.016;2022-10-16T08:38:47;12.70;99.90
31084;DHT22;36333;51.382;0.016;2022-10-16T08:49:28;12.80;99.90
31084;DHT22;36333;51.382;0.016;2022-10-16T08:51:57;12.70;99.90
31084;DHT22;36333;51.382;0.016;2022-10-16T08:54:29;12.70;99.90
31084;DHT22;36333;51.382;0.016;2022-10-16T08:57:12;12.70;99.90
31084;DHT22;36333;51.382;0.016;2022-10-16T08:59:46;12.50;99.90
31084;DHT22;36333;51.382;0.016;2022-10-16T09:02:24;13.10;99.90
31084;DHT22;36333;51.382;0.016;2022-10-16T09:13:48;12.40;99.90
31084;DHT22;36333;51.382;0.016;2022-10-16T09:16:38;12.30;99.90
31084;DHT22;36333;51.382;0.016;2022-10-16T09:19:20;12.30;99.90
31084;DHT22;36333;51.382;0.016;2022-10-16T09:21:49;12.90;99.90
31084;DHT22;36333;51.382;0.016;2022-10-16T09:24:19;12.80;99.90
31084;DHT22;36333;51.382;0.016;2022-10-16T09:26:48;12.40;99.90
31084;DHT22;36333;51.382;0.016;2022-10-16T09:29:18;12.40;99.90
31084;DHT22;36333;51.382;0.016;2022-10-16T09:31:48;12.30;99.90
31084;DHT22;36333;51.382;0.016;2022-10-16T09:36:46;12.70;99.90
31084;DHT22;36333;51.382;0.016;2022-10-16T09:39:14;12.90;99.90
31084;DHT22;36333;51.382;0.016;2022-10-16T09:41:43;12.40;99.90
31084;DHT22;36333;51.382;0.016;2022-10-16T09:47:05;12.40;99.90
31084;DHT22;36333;51.382;0.016;2022-10-16T09:49:33;12.40;99.90
31084;DHT22;36333;51.382;0.016;2022-10-16T09:52:11;12.40;99.90
31084;DHT22;36333;51.382;0.016;2022-10-16T09:54:53;13.30;99.90
31084;DHT22;36333;51.382;0.016;2022-10-16T09:57:22;12.70;99.90
31084;DHT22;36333;51.382;0.016;2022-10-16T09:59:57;12.60;99.90
31084;DHT22;36333;51.382;0.016;2022-10-16T10:02:35;12.60;99.90
31084;DHT22;36333;51.382;0.016;2022-10-16T10:05:04;12.70;99.90
31084;DHT22;36333;51.382;0.016;2022-10-16T10:07:38;12.80;99.90
31084;DHT22;36333;51.382;0.016;2022-10-16T10:10:20;12.90;99.90
31084;DHT22;36333;51.382;0.016;2022-10-16T10:12:49;13.00;99.90
31084;DHT22;36333;51.382;0.016;2022-10-16T10:15:19;13.20;99.90
31084;DHT22;36333;51.382;0.016;2022-10-16T10:17:57;13.50;99.90
31084;DHT22;36333;51.382;0.016;2022-10-16T10:20:26;13.70;99.90
31084;DHT22;36333;51.382;0.016;2022-10-16T10:22:55;13.90;99.90
31084;DHT22;36333;51.382;0.016;2022-10-16T10:28:08;14.30;99.90
31084;DHT22;36333;51.382;0.016;2022-10-16T10:34:22;14.60;99.90
31084;DHT22;36333;51.382;0.016;2022-10-16T10:37:03;14.90;99.90
31084;DHT22;36333;51.382;0.016;2022-10-16T10:39:36;15.00;99.90
31084;DHT22;36333;51.382;0.016;2022-10-16T10:42:08;15.20;99.90
31084;DHT22;36333;51.382;0.016;2022-10-16T10:50:43;15.60;99.90
31084;DHT22;36333;51.382;0.016;2022-10-16T10:53:38;15.70;99.90
31084;DHT22;36333;51.382;0.016;2022-10-16T11:02:42;16.00;99.90
31084;DHT22;36333;51.382;0.016;2022-10-16T11:05:38;16.10;99.90
31084;DHT22;36333;51.382;0.016;2022-10-16T11:10:54;16.30;99.80
31084;DHT22;36333;51.382;0.016;2022-10-16T11:13:55;16.40;99.90
31084;DHT22;36333;51.382;0.016;2022-10-16T11:16:32;16.40;99.70
31084;DHT22;36333;51.382;0.016;2022-10-16T11:30:30;16.90;99.00
31084;DHT22;36333;51.382;0.016;2022-10-16T11:36:00;17.00;98.70
31084;DHT22;36333;51.382;0.016;2022-10-16T11:38:50;17.10;98.50
31084;DHT22;36333;51.382;0.016;2022-10-16T11:41:37;17.10;98.50
31084;DHT22;36333;51.382;0.016;2022-10-16T11:44:38;17.10;98.40
31084;DHT22;36333;51.382;0.016;2022-10-16T11:47:30;17.20;98.40
31084;DHT22;36333;51.382;0.016;2022-10-16T11:50:27;17.30;98.60
31084;DHT22;36333;51.382;0.016;2022-10-16T11:55:37;17.50;98.30
31084;DHT22;36333;51.382;0.016;2022-10-16T11:58:41;17.50;98.20
31084;DHT22;36333;51.382;0.016;2022-10-16T12:01:31;17.60;97.90
31084;DHT22;36333;51.382;0.016;2022-10-16T12:07:09;17.80;98.00
31084;DHT22;36333;51.382;0.016;2022-10-16T12:09:40;17.90;97.90
31084;DHT22;36333;51.382;0.016;2022-10-16T12:12:38;18.00;97.70
31084;DHT22;36333;51.382;0.016;2022-10-16T12:17:56;18.00;97.00
31084;DHT22;36333;51.382;0.016;2022-10-16T12:22:56;17.80;97.20
31084;DHT22;36333;51.382;0.016;2022-10-16T12:25:32;17.70;97.20
31084;DHT22;36333;51.382;0.016;2022-10-16T12:28:05;17.60;97.50
31084;DHT22;36333;51.382;0.016;2022-10-16T12:30:35;17.50;97.50
31084;DHT22;36333;51.382;0.016;2022-10-16T12:33:06;17.40;97.80
31084;DHT22;36333;51.382;0.016;2022-10-16T12:35:42;17.30;97.60
31084;DHT22;36333;51.382;0.016;2022-10-16T12:41:26;17.10;98.10
31084;DHT22;36333;51.382;0.016;2022-10-16T12:43:55;17.00;98.10
31084;DHT22;36333;51.382;0.016;2022-10-16T12:46:39;16.90;98.30
31084;DHT22;36333;51.382;0.016;2022-10-16T12:51:41;16.80;98.50
31084;DHT22;36333;51.382;0.016;2022-10-16T13:00:04;16.80;99.20
31084;DHT22;36333;51.382;0.016;2022-10-16T13:05:42;16.90;99.40
31084;DHT22;36333;51.382;0.016;2022-10-16T13:16:49;17.20;99.40
31084;DHT22;36333;51.382;0.016;2022-10-16T13:19:40;17.10;99.40
31084;DHT22;36333;51.382;0.016;2022-10-16T13:22:35;17.10;99.50
31084;DHT22;36333;51.382;0.016;2022-10-16T13:25:31;17.10;99.50
31084;DHT22;36333;51.382;0.016;2022-10-16T13:28:06;17.10;99.30
31084;DHT22;36333;51.382;0.016;2022-10-16T13:30:42;17.00;99.50
31084;DHT22;36333;51.382;0.016;2022-10-16T13:33:17;17.00;99.70
31084;DHT22;36333;51.382;0.016;2022-10-16T13:35:54;17.00;99.90
31084;DHT22;36333;51.382;0.016;2022-10-16T13:38:25;17.00;99.80
31084;DHT22;36333;51.382;0.016;2022-10-16T13:40:59;17.00;99.90
31084;DHT22;36333;51.382;0.016;2022-10-16T13:43:50;17.00;99.90
31084;DHT22;36333;51.382;0.016;2022-10-16T13:46:23;17.00;99.90
31084;DHT22;36333;51.382;0.016;2022-10-16T13:49:03;17.10;99.90
31084;DHT22;36333;51.382;0.016;2022-10-16T13:51:34;17.20;99.90
31084;DHT22;36333;51.382;0.016;2022-10-16T13:54:01;17.20;99.90
31084;DHT22;36333;51.382;0.016;2022-10-16T13:56:32;17.20;99.90
31084;DHT22;36333;51.382;0.016;2022-10-16T13:59:39;17.30;99.90
31084;DHT22;36333;51.382;0.016;2022-10-16T14:02:20;17.30;99.90
31084;DHT22;36333;51.382;0.016;2022-10-16T14:04:49;17.30;99.90
31084;DHT22;36333;51.382;0.016;2022-10-16T14:07:24;17.30;99.90
31084;DHT22;36333;51.382;0.016;2022-10-16T14:09:53;17.30;99.90
31084;DHT22;36333;51.382;0.016;2022-10-16T14:12:22;17.30;99.90
31084;DHT22;36333;51.382;0.016;2022-10-16T14:14:55;17.30;99.90
31084;DHT22;36333;51.382;0.016;2022-10-16T14:17:29;17.30;99.90
31084;DHT22;36333;51.382;0.016;2022-10-16T14:20:00;17.30;99.90
31084;DHT22;36333;51.382;0.016;2022-10-16T14:22:35;17.20;99.90
31084;DHT22;36333;51.382;0.016;2022-10-16T14:28:00;17.20;99.90
31084;DHT22;36333;51.382;0.016;2022-10-16T14:30:35;17.20;99.90
31084;DHT22;36333;51.382;0.016;2022-10-16T14:33:04;17.30;99.90
31084;DHT22;36333;51.382;0.016;2022-10-16T14:35:37;17.20;99.90
31084;DHT22;36333;51.382;0.016;2022-10-16T14:38:14;17.20;99.90
31084;DHT22;36333;51.382;0.016;2022-10-16T14:40:47;17.20;99.90
31084;DHT22;36333;51.382;0.016;2022-10-16T14:43:22;17.10;99.90
31084;DHT22;36333;51.382;0.016;2022-10-16T14:45:53;17.10;99.90
31084;DHT22;36333;51.382;0.016;2022-10-16T14:48:21;17.10;99.90
31084;DHT22;36333;51.382;0.016;2022-10-16T14:50:49;17.00;99.90
31084;DHT22;36333;51.382;0.016;2022-10-16T14:53:17;17.00;99.90
31084;DHT22;36333;51.382;0.016;2022-10-16T14:55:45;16.90;99.90
31084;DHT22;36333;51.382;0.016;2022-10-16T14:58:21;16.90;99.90
31084;DHT22;36333;51.382;0.016;2022-10-16T15:00:49;16.90;99.90
31084;DHT22;36333;51.382;0.016;2022-10-16T15:03:16;16.90;99.90
31084;DHT22;36333;51.382;0.016;2022-10-16T15:05:44;16.80;99.90
31084;DHT22;36333;51.382;0.016;2022-10-16T15:08:11;16.80;99.90
31084;DHT22;36333;51.382;0.016;2022-10-16T15:10:42;16.80;99.90
31084;DHT22;36333;51.382;0.016;2022-10-16T15:13:14;16.70;99.90
31084;DHT22;36333;51.382;0.016;2022-10-16T15:15:47;16.60;99.90
31084;DHT22;36333;51.382;0.016;2022-10-16T15:18:16;16.60;99.90
31084;DHT22;36333;51.382;0.016;2022-10-16T15:20:49;16.50;99.90
31084;DHT22;36333;51.382;0.016;2022-10-16T15:23:19;16.40;99.90
31084;DHT22;36333;51.382;0.016;2022-10-16T15:25:51;16.40;99.90
31084;DHT22;36333;51.382;0.016;2022-10-16T15:28:21;16.30;99.90
31084;DHT22;36333;51.382;0.016;2022-10-16T15:31:12;16.20;99.90
31084;DHT22;36333;51.382;0.016;2022-10-16T15:33:39;16.00;99.90
31084;DHT22;36333;51.382;0.016;2022-10-16T15:36:07;16.00;99.90
31084;DHT22;36333;51.382;0.016;2022-10-16T15:38:35;16.00;99.90
31084;DHT22;36333;51.382;0.016;2022-10-16T15:41:07;15.90;99.90
31084;DHT22;36333;51.382;0.016;2022-10-16T15:43:34;15.90;99.90
31084;DHT22;36333;51.382;0.016;2022-10-16T15:46:05;15.90;99.90
31084;DHT22;36333;51.382;0.016;2022-10-16T15:48:33;15.80;99.90
31084;DHT22;36333;51.382;0.016;2022-10-16T15:51:05;15.80;99.90
31084;DHT22;36333;51.382;0.016;2022-10-16T15:53:36;15.80;99.90
31084;DHT22;36333;51.382;0.016;2022-10-16T15:56:05;15.70;99.90
31084;DHT22;36333;51.382;0.016;2022-10-16T15:58:33;15.70;99.90
31084;DHT22;36333;51.382;0.016;2022-10-16T16:01:01;15.60;99.90
31084;DHT22;36333;51.382;0.016;2022-10-16T16:03:31;15.60;99.90
31084;DHT22;36333;51.382;0.016;2022-10-16T16:06:04;15.60;99.90
31084;DHT22;36333;51.382;0.016;2022-10-16T16:08:33;15.60;99.90
31084;DHT22;36333;51.382;0.016;2022-10-16T16:11:07;15.50;99.90
31084;DHT22;36333;51.382;0.016;2022-10-16T16:13:35;15.50;99.90
31084;DHT22;36333;51.382;0.016;2022-10-16T16:16:07;15.50;99.90
31084;DHT22;36333;51.382;0.016;2022-10-16T16:18:35;15.40;99.90
31084;DHT22;36333;51.382;0.016;2022-10-16T16:21:03;15.40;99.90
31084;DHT22;36333;51.382;0.016;2022-10-16T16:23:31;15.40;99.90
31084;DHT22;36333;51.382;0.016;2022-10-16T16:26:11;15.30;99.90
31084;DHT22;36333;51.382;0.016;2022-10-16T16:28:44;15.30;99.90
31084;DHT22;36333;51.382;0.016;2022-10-16T16:31:14;15.30;99.90
31084;DHT22;36333;51.382;0.016;2022-10-16T16:33:41;15.20;99.90
31084;DHT22;36333;51.382;0.016;2022-10-16T16:36:12;15.20;99.90
31084;DHT22;36333;51.382;0.016;2022-10-16T16:38:45;15.10;99.90
31084;DHT22;36333;51.382;0.016;2022-10-16T16:41:18;15.20;99.90
31084;DHT22;36333;51.382;0.016;2022-10-16T16:43:46;15.10;99.90
31084;DHT22;36333;51.382;0.016;2022-10-16T16:46:17;15.00;99.90
31084;DHT22;36333;51.382;0.016;2022-10-16T16:48:45;15.00;99.90
31084;DHT22;36333;51.382;0.016;2022-10-16T16:51:15;14.90;99.90
31084;DHT22;36333;51.382;0.016;2022-10-16T16:53:48;14.90;99.90
31084;DHT22;36333;51.382;0.016;2022-10-16T16:56:17;14.80;99.90
31084;DHT22;36333;51.382;0.016;2022-10-16T16:58:46;14.80;99.90
31084;DHT22;36333;51.382;0.016;2022-10-16T17:01:17;14.70;99.90
31084;DHT22;36333;51.382;0.016;2022-10-16T17:03:49;14.70;99.90
31084;DHT22;36333;51.382;0.016;2022-10-16T17:06:19;14.70;99.90
31084;DHT22;36333;51.382;0.016;2022-10-16T17:08:49;14.60;99.90
31084;DHT22;36333;51.382;0.016;2022-10-16T17:11:20;14.60;99.90
31084;DHT22;36333;51.382;0.016;2022-10-16T17:13:48;14.60;99.90
31084;DHT22;36333;51.382;0.016;2022-10-16T17:16:25;14.60;99.90
31084;DHT22;36333;51.382;0.016;2022-10-16T17:18:58;14.70;99.90
31084;DHT22;36333;51.382;0.016;2022-10-16T17:21:25;14.60;99.90
31084;DHT22;36333;51.382;0.016;2022-10-16T17:23:54;14.60;99.90
31084;DHT22;36333;51.382;0.016;2022-10-16T17:26:22;14.60;99.90
31084;DHT22;36333;51.382;0.016;2022-10-16T17:28:55;14.60;99.90
31084;DHT22;36333;51.382;0.016;2022-10-16T17:31:28;14.60;99.90
31084;DHT22;36333;51.382;0.016;2022-10-16T17:34:00;14.50;99.90
31084;DHT22;36333;51.382;0.016;2022-10-16T17:36:33;14.50;99.90
31084;DHT22;36333;51.382;0.016;2022-10-16T17:39:06;14.50;99.90
31084;DHT22;36333;51.382;0.016;2022-10-16T17:41:35;14.50;99.90
31084;DHT22;36333;51.382;0.016;2022-10-16T17:44:04;14.50;99.90
31084;DHT22;36333;51.382;0.016;2022-10-16T17:46:32;14.40;99.90
31084;DHT22;36333;51.382;0.016;2022-10-16T17:49:09;14.40;99.90
31084;DHT22;36333;51.382;0.016;2022-10-16T17:51:37;14.40;99.90